Time;durP1;ratioP1;P1;durP2;ratioP2;P2;SDS_P1;SDS_P2;PMS_P1;PMS_P2;Temp;Humidity;BMP_temperature;BMP_pressure;BME280_temperature;BME280_humidity;BME280_pressure;Samples;Min_cycle;Max_cycle;Signal;HPM_P1;HPM_P2
2022/08/24 00:01:07;;;;;;;;;3.00;2.25;;;;;23.99;57.40;101377.41;5074548;27;45499;-81
2022/08/24 00:03:34;;;;;;;;;5.00;3.00;;;;;24.01;57.39;101371.97;5075624;28;45515;-82
2022/08/24 00:05:59;;;;;;;;;4.00;4.00;;;;;24.02;57.46;101377.19;5077887;28;45402;-82
2022/08/24 00:08:25;;;;;;;;;3.00;3.00;;;;;24.02;57.71;101379.00;5079223;28;45387;-82
2022/08/24 00:10:51;;;;;;;;;4.50;3.25;;;;;24.00;57.50;101378.28;5079314;27;45376;-82
2022/08/24 00:13:16;;;;;;;;;4.00;4.00;;;;;24.00;57.86;101375.63;5079099;27;45437;-81
2022/08/24 00:15:42;;;;;;;;;3.00;3.00;;;;;24.00;57.54;101379.13;5078984;27;45292;-82
2022/08/24 00:18:08;;;;;;;;;4.25;3.25;;;;;24.00;57.64;101383.59;5078861;27;45394;-81
2022/08/24 00:20:33;;;;;;;;;4.00;4.00;;;;;23.99;57.81;101380.06;5078088;27;62717;-81
2022/08/24 00:22:59;;;;;;;;;4.75;3.50;;;;;23.99;57.73;101376.56;5078844;27;46203;-82
2022/08/24 00:25:24;;;;;;;;;4.25;4.00;;;;;23.97;58.09;101374.03;5077818;27;67518;-82
2022/08/24 00:27:49;;;;;;;;;2.25;2.25;;;;;23.94;58.35;101383.09;5078099;28;61359;-81
2022/08/24 00:30:18;;;;;;;;;4.75;3.00;;;;;23.91;57.51;101370.00;5078768;27;45392;-81
2022/08/24 00:32:45;;;;;;;;;3.00;3.00;;;;;23.89;58.29;101374.59;5076893;27;45439;-81
2022/08/24 00:35:12;;;;;;;;;3.00;3.00;;;;;23.86;58.04;101373.97;5077077;28;45332;-81
2022/08/24 00:37:38;;;;;;;;;4.00;4.00;;;;;23.84;58.12;101373.25;5078662;27;45294;-81
2022/08/24 00:40:10;;;;;;;;;4.75;2.75;;;;;23.81;58.42;101378.78;5078669;27;45292;-81
2022/08/24 00:42:36;;;;;;;;;4.50;4.50;;;;;23.80;58.43;101377.09;5078431;27;45496;-81
2022/08/24 00:45:02;;;;;;;;;5.25;3.25;;;;;23.80;59.03;101372.63;5078443;27;45703;-81
2022/08/24 00:47:32;;;;;;;;;4.00;4.00;;;;;23.77;59.19;101364.84;5078299;27;45309;-81
2022/08/24 00:50:02;;;;;;;;;5.00;3.50;;;;;23.75;59.22;101372.09;5077200;27;45376;-82
2022/08/24 00:52:32;;;;;;;;;5.00;4.00;;;;;23.74;58.87;101373.06;5076968;27;46224;-82
2022/08/24 00:55:11;;;;;;;;;6.00;4.50;;;;;23.72;59.03;101372.34;5076822;27;45859;-82
2022/08/24 00:57:39;;;;;;;;;6.50;5.25;;;;;23.71;58.78;101368.81;5078392;27;45220;-81
2022/08/24 01:00:11;;;;;;;;;4.75;4.50;;;;;23.70;58.71;101377.75;5077090;28;45463;-82
2022/08/24 01:02:40;;;;;;;;;3.75;3.75;;;;;23.70;58.97;101376.88;5077680;27;46260;-81
2022/08/24 01:05:08;;;;;;;;;4.00;3.00;;;;;23.68;59.08;101374.38;5076778;28;45809;-82
2022/08/24 01:07:35;;;;;;;;;4.00;4.00;;;;;23.64;58.95;101372.03;5077086;27;45301;-82
2022/08/24 01:10:05;;;;;;;;;4.00;4.00;;;;;23.59;59.63;101377.72;5078118;27;45460;-81
2022/08/24 01:12:33;;;;;;;;;4.00;3.25;;;;;23.57;59.49;101383.13;5076653;27;46732;-82
2022/08/24 01:15:00;;;;;;;;;5.00;3.25;;;;;23.54;59.76;101374.53;5076572;27;45345;-82
2022/08/24 01:20:10;;;;;;;;;5.25;4.00;;;;;23.50;59.32;101371.25;5077111;27;45492;-81
2022/08/24 01:22:49;;;;;;;;;4.00;4.00;;;;;23.46;59.89;101377.75;5076638;27;45739;-82
2022/08/24 01:25:15;;;;;;;;;2.75;2.75;;;;;23.44;59.74;101377.03;5076521;27;45373;-82
2022/08/24 01:27:42;;;;;;;;;4.00;3.75;;;;;23.43;60.04;101367.34;5076662;28;45460;-82
2022/08/24 01:30:11;;;;;;;;;5.25;3.75;;;;;23.42;60.22;101373.66;5076324;28;45571;-82
2022/08/24 01:32:36;;;;;;;;;3.50;2.00;;;;;23.40;60.18;101375.53;5077599;27;45533;-82
2022/08/24 01:35:02;;;;;;;;;2.75;2.75;;;;;23.37;60.23;101373.97;5077777;27;45580;-81
2022/08/24 01:37:28;;;;;;;;;3.00;3.00;;;;;23.33;60.24;101372.50;5076463;27;45501;-82
2022/08/24 01:39:55;;;;;;;;;4.75;3.75;;;;;23.32;60.19;101375.25;5076367;28;45342;-81
2022/08/24 01:42:21;;;;;;;;;3.75;2.75;;;;;23.30;60.06;101374.53;5076431;28;45554;-81
2022/08/24 01:44:46;;;;;;;;;5.25;3.25;;;;;23.30;60.19;101371.88;5077084;27;45381;-81
2022/08/24 01:47:14;;;;;;;;;4.25;2.75;;;;;23.29;60.89;101375.47;5077293;28;46741;-82
2022/08/24 01:49:42;;;;;;;;;3.75;2.75;;;;;23.26;60.56;101376.56;5077614;27;45327;-81
2022/08/24 01:52:11;;;;;;;;;4.50;3.00;;;;;23.24;60.95;101377.63;5077404;27;45373;-81
2022/08/24 01:54:37;;;;;;;;;4.00;4.00;;;;;23.19;60.80;101385.91;5077218;27;45947;-81
2022/08/24 01:57:03;;;;;;;;;3.25;3.00;;;;;23.17;60.89;101386.03;5077499;27;45338;-81
2022/08/24 01:59:28;;;;;;;;;2.25;2.25;;;;;23.16;61.03;101387.00;5077314;27;45449;-81
2022/08/24 02:01:59;;;;;;;;;4.00;4.00;;;;;23.16;60.97;101380.81;5077329;27;46158;-82
2022/08/24 02:04:25;;;;;;;;;3.25;3.25;;;;;23.13;61.11;101375.75;5076036;27;45444;-81
2022/08/24 02:06:50;;;;;;;;;2.75;2.75;;;;;23.13;61.05;101373.09;5076550;28;69346;-81
2022/08/24 02:09:16;;;;;;;;;6.50;2.75;;;;;23.11;61.24;101370.53;5077189;28;45366;-82
2022/08/24 02:11:41;;;;;;;;;3.00;2.75;;;;;23.09;60.67;101367.16;5075905;27;45375;-81
2022/08/24 02:14:07;;;;;;;;;3.25;3.25;;;;;23.09;61.13;101368.97;5075702;27;45414;-82
2022/08/24 02:16:32;;;;;;;;;3.00;3.00;;;;;23.09;61.15;101375.13;5076253;27;67668;-81
2022/08/24 02:18:58;;;;;;;;;3.50;3.50;;;;;23.09;61.23;101374.28;5077259;27;45313;-81
2022/08/24 02:21:23;;;;;;;;;4.75;2.75;;;;;23.08;60.97;101373.41;5076074;28;70479;-82
2022/08/24 02:23:49;;;;;;;;;3.75;3.75;;;;;23.06;61.42;101372.66;5077019;27;45554;-81
2022/08/24 02:26:15;;;;;;;;;3.75;3.75;;;;;23.05;61.65;101373.66;5077125;27;45488;-82
2022/08/24 02:28:40;;;;;;;;;3.75;3.75;;;;;23.05;61.46;101378.09;5075696;27;68117;-81
2022/08/24 02:31:07;;;;;;;;;6.00;4.00;;;;;23.02;61.82;101379.13;5076817;27;45902;-81
2022/08/24 02:33:37;;;;;;;;;3.00;2.50;;;;;23.00;61.55;101381.06;5075510;28;45692;-82
2022/08/24 02:36:04;;;;;;;;;6.25;3.75;;;;;22.99;61.48;101374.91;5076957;27;45393;-82
2022/08/24 02:38:29;;;;;;;;;5.00;3.50;;;;;22.98;61.75;101378.50;5076750;27;45539;-82
2022/08/24 02:40:56;;;;;;;;;1.00;1.00;;;;;22.99;61.84;101376.69;5075978;27;57966;-81
2022/08/24 02:43:22;;;;;;;;;2.25;2.25;;;;;22.97;61.65;101376.81;5076474;27;45635;-81
2022/08/24 02:45:47;;;;;;;;;4.00;3.75;;;;;22.97;61.76;101379.47;5076707;28;45495;-82
2022/08/24 02:48:13;;;;;;;;;3.00;3.00;;;;;22.98;62.26;101378.50;5075616;27;68609;-82
2022/08/24 02:50:44;;;;;;;;;3.25;3.25;;;;;22.96;61.70;101382.25;5076534;27;46471;-81
2022/08/24 02:53:10;;;;;;;;;5.50;4.50;;;;;22.93;61.74;101379.78;5075257;28;45408;-81
2022/08/24 02:55:38;;;;;;;;;2.75;2.75;;;;;22.90;62.17;101383.53;5075393;28;45382;-81
2022/08/24 02:58:03;;;;;;;;;2.75;2.75;;;;;22.87;62.48;101383.72;5076161;27;45300;-82
2022/08/24 03:00:28;;;;;;;;;6.50;4.00;;;;;22.84;62.48;101375.97;5075064;27;46747;-82
2022/08/24 03:02:54;;;;;;;;;3.50;2.50;;;;;22.81;62.45;101384.16;5075429;28;71282;-82
2022/08/24 03:05:20;;;;;;;;;3.50;2.75;;;;;22.77;63.02;101375.56;5076420;28;45340;-82
2022/08/24 03:07:46;;;;;;;;;4.25;3.25;;;;;22.73;62.91;101376.75;5075171;28;45349;-82
2022/08/24 03:10:12;;;;;;;;;3.00;3.00;;;;;22.70;63.30;101373.47;5074989;28;46451;-82
2022/08/24 03:12:37;;;;;;;;;5.25;4.50;;;;;22.67;62.97;101366.53;5075944;27;45367;-82
2022/08/24 03:15:05;;;;;;;;;4.25;2.50;;;;;22.67;62.97;101371.00;5076151;28;45405;-81
2022/08/24 03:17:32;;;;;;;;;3.75;3.50;;;;;22.65;63.24;101370.28;5076149;27;45412;-82
2022/08/24 03:19:59;;;;;;;;;3.50;3.50;;;;;22.67;63.32;101366.53;5076184;27;45472;-82
2022/08/24 03:22:24;;;;;;;;;3.00;3.00;;;;;22.67;63.01;101369.19;5076148;27;45701;-81
2022/08/24 03:24:49;;;;;;;;;5.00;3.00;;;;;22.65;62.91;101367.63;5076237;28;45534;-82
2022/08/24 03:27:15;;;;;;;;;5.00;4.25;;;;;22.64;63.01;101369.44;5075045;28;59396;-81
2022/08/24 03:29:40;;;;;;;;;3.00;2.75;;;;;22.62;63.09;101363.34;5075329;27;63992;-81
2022/08/24 03:32:05;;;;;;;;;2.25;2.25;;;;;22.61;63.17;101367.81;5075879;28;45377;-81
2022/08/24 03:34:31;;;;;;;;;5.75;3.50;;;;;22.61;63.46;101365.16;5075298;28;53755;-81
2022/08/24 03:36:56;;;;;;;;;3.00;2.25;;;;;22.61;63.74;101369.63;5073903;28;65368;-82
2022/08/24 03:39:21;;;;;;;;;5.00;4.00;;;;;22.60;63.66;101362.63;5078741;27;46526;-82
2022/08/24 03:41:47;;;;;;;;;3.50;3.50;;;;;22.56;63.34;101369.94;5079192;27;45440;-82
2022/08/24 03:44:12;;;;;;;;;4.00;3.25;;;;;22.53;63.79;101364.88;5078526;27;65616;-81
2022/08/24 03:46:38;;;;;;;;;4.00;4.00;;;;;22.50;63.44;101362.41;5078987;28;50070;-81
2022/08/24 03:49:06;;;;;;;;;4.00;4.00;;;;;22.52;63.29;101365.81;5078064;28;45465;-81
2022/08/24 03:51:32;;;;;;;;;4.50;3.00;;;;;22.49;63.48;101363.41;5079133;27;45827;-81
2022/08/24 03:53:58;;;;;;;;;4.00;4.00;;;;;22.47;63.71;101365.28;5078274;27;69306;-81
2022/08/24 03:56:25;;;;;;;;;5.00;3.25;;;;;22.46;63.65;101360.94;5079032;27;45336;-81
2022/08/24 03:58:50;;;;;;;;;4.00;3.50;;;;;22.45;63.76;101356.56;5079216;27;46609;-81
2022/08/24 04:01:16;;;;;;;;;3.00;3.00;;;;;22.45;63.79;101361.03;5079027;27;47991;-81
2022/08/24 04:03:43;;;;;;;;;4.75;4.75;;;;;22.45;63.72;101355.75;5079177;27;45385;-81
2022/08/24 04:06:11;;;;;;;;;5.00;5.00;;;;;22.46;63.66;101349.50;5079205;27;45484;-81
2022/08/24 04:08:36;;;;;;;;;5.00;3.00;;;;;22.46;63.83;101362.75;5077667;28;45612;-81
2022/08/24 04:11:02;;;;;;;;;4.00;3.75;;;;;22.45;64.09;101355.75;5078694;28;45309;-81
2022/08/24 04:13:31;;;;;;;;;3.50;2.50;;;;;22.41;64.17;101357.75;5079149;27;45395;-81
2022/08/24 04:15:58;;;;;;;;;3.00;3.00;;;;;22.39;63.95;101357.84;5061092;27;45778;-81
2022/08/24 04:18:23;;;;;;;;;3.50;2.50;;;;;22.40;63.87;101361.38;5077527;27;47272;-81
2022/08/24 04:20:49;;;;;;;;;3.25;3.25;;;;;22.38;64.00;101356.19;5078157;27;67444;-82
2022/08/24 04:23:14;;;;;;;;;3.50;3.00;;;;;22.36;64.35;101359.88;5078808;27;45300;-81
2022/08/24 04:25:45;;;;;;;;;4.25;3.25;;;;;22.33;64.54;101352.97;5078226;27;54661;-81
2022/08/24 04:28:13;;;;;;;;;4.25;3.00;;;;;22.30;64.67;101355.84;5078928;27;45420;-82
2022/08/24 04:30:42;;;;;;;;;4.00;4.00;;;;;22.27;64.14;101355.19;5077392;27;45434;-81
2022/08/24 04:33:10;;;;;;;;;3.75;3.25;;;;;22.28;65.21;101356.91;5078735;27;45262;-81
2022/08/24 04:35:40;;;;;;;;;6.00;3.00;;;;;22.26;64.57;101358.81;5078695;27;45367;-81
2022/08/24 04:38:06;;;;;;;;;4.75;4.75;;;;;22.24;64.83;101350.94;5078378;27;46225;-81
2022/08/24 04:40:32;;;;;;;;;4.00;3.00;;;;;22.22;65.00;101351.03;5078661;27;45390;-81
2022/08/24 04:42:58;;;;;;;;;4.00;4.00;;;;;22.23;64.63;101358.03;5078622;27;45364;-81
2022/08/24 04:45:25;;;;;;;;;4.00;4.00;;;;;22.23;64.85;101347.44;5077465;27;45311;-81
2022/08/24 04:47:50;;;;;;;;;8.50;5.50;;;;;22.24;64.98;101351.78;5078499;28;46506;-81
2022/08/24 04:50:15;;;;;;;;;4.00;4.00;;;;;22.24;64.73;101348.28;5077501;28;73087;-81
2022/08/24 04:52:41;;;;;;;;;4.25;4.25;;;;;22.23;65.19;101346.56;5078321;28;45484;-81
2022/08/24 04:55:07;;;;;;;;;4.75;4.75;;;;;22.22;64.62;101351.03;5077314;27;62209;-81
2022/08/24 04:57:33;;;;;;;;;4.00;3.50;;;;;22.21;65.04;101354.66;5078194;27;47367;-82
2022/08/24 04:59:58;;;;;;;;;4.50;3.00;;;;;22.22;65.25;101353.69;5078245;27;45477;-81
2022/08/24 05:02:24;;;;;;;;;3.00;3.00;;;;;22.21;64.97;101352.00;5077529;27;45411;-81
2022/08/24 05:04:50;;;;;;;;;4.75;4.75;;;;;22.22;65.23;101356.34;5076876;27;45399;-81
2022/08/24 05:07:17;;;;;;;;;2.00;2.00;;;;;22.22;64.96;101364.28;5077701;27;46524;-81
2022/08/24 05:09:43;;;;;;;;;4.25;4.25;;;;;22.23;64.98;101357.16;5078186;27;45927;-81
2022/08/24 05:12:10;;;;;;;;;5.00;5.00;;;;;22.23;65.20;101363.34;5078229;27;45282;-81
2022/08/24 05:14:35;;;;;;;;;4.00;4.00;;;;;22.23;65.36;101359.81;5078238;27;45287;-81
2022/08/24 05:17:00;;;;;;;;;5.00;4.25;;;;;22.22;64.97;101361.63;5077005;27;65722;-81
2022/08/24 05:19:26;;;;;;;;;5.25;4.00;;;;;22.24;64.82;101361.53;5076851;27;45380;-81
2022/08/24 05:21:52;;;;;;;;;4.75;3.75;;;;;22.25;64.79;101363.25;5077647;27;45307;-81
2022/08/24 05:24:18;;;;;;;;;8.75;3.25;;;;;22.27;65.05;101369.31;5078022;27;45382;-81
2022/08/24 05:26:44;;;;;;;;;4.00;4.00;;;;;22.28;65.32;101368.34;5077604;27;46165;-81
2022/08/24 05:29:09;;;;;;;;;5.75;5.75;;;;;22.28;65.09;101364.88;5077733;27;45478;-81
2022/08/24 05:31:35;;;;;;;;;6.00;6.00;;;;;22.30;65.08;101369.09;5077706;28;45436;-81
2022/08/24 05:34:01;;;;;;;;;5.50;5.00;;;;;22.31;64.94;101357.53;5077718;27;45568;-81
2022/08/24 05:36:37;;;;;;;;;6.00;4.75;;;;;22.31;64.88;101362.84;5076842;27;47110;-81
2022/08/24 05:39:07;;;;;;;;;4.25;4.00;;;;;22.31;64.69;101362.00;5077648;27;45611;-81
2022/08/24 05:41:33;;;;;;;;;7.25;6.00;;;;;22.34;64.66;101367.09;5076458;28;45465;-81
2022/08/24 05:43:58;;;;;;;;;5.50;4.75;;;;;22.35;64.58;101366.97;5077528;27;45350;-81
2022/08/24 05:46:24;;;;;;;;;5.00;5.00;;;;;22.35;64.66;101368.78;5076323;27;45446;-81
2022/08/24 05:48:50;;;;;;;;;7.50;5.25;;;;;22.36;64.59;101373.13;5077449;27;45342;-81
2022/08/24 05:51:16;;;;;;;;;5.00;4.50;;;;;22.37;64.73;101364.22;5076113;28;45553;-81
2022/08/24 05:53:41;;;;;;;;;7.00;6.00;;;;;22.38;64.70;101368.56;5077251;27;45300;-81
2022/08/24 05:56:13;;;;;;;;;4.50;4.50;;;;;22.39;64.70;101367.63;5077374;27;46491;-81
2022/08/24 05:58:39;;;;;;;;;5.00;5.00;;;;;22.40;64.87;101364.88;5076198;28;45359;-81
2022/08/24 06:01:10;;;;;;;;;6.00;4.50;;;;;22.40;64.81;101367.53;5075639;28;45353;-81
2022/08/24 06:03:36;;;;;;;;;4.25;2.75;;;;;22.42;64.74;101372.72;5077520;27;45296;-82
2022/08/24 06:06:02;;;;;;;;;6.00;5.50;;;;;22.46;64.52;101371.56;5076875;27;45389;-81
2022/08/24 06:08:29;;;;;;;;;6.75;5.25;;;;;22.49;65.28;101376.66;5075568;27;45858;-81
2022/08/24 06:10:55;;;;;;;;;7.00;5.75;;;;;22.50;64.57;101375.69;5077336;27;45443;-81
2022/08/24 06:13:21;;;;;;;;;7.25;6.00;;;;;22.51;64.54;101379.19;5076064;27;70551;-81
2022/08/24 06:15:46;;;;;;;;;4.25;4.25;;;;;22.53;64.95;101377.25;5075708;27;46194;-81
2022/08/24 06:18:11;;;;;;;;;5.00;5.00;;;;;22.56;64.61;101379.72;5074812;28;62631;-81
2022/08/24 06:20:40;;;;;;;;;5.25;5.25;;;;;22.57;64.79;101381.44;5076545;27;45371;-81
2022/08/24 06:23:06;;;;;;;;;6.50;5.00;;;;;22.59;64.63;101379.50;5077087;27;45384;-81
2022/08/24 06:28:15;;;;;;;;;6.00;5.25;;;;;22.63;64.47;101383.66;5076803;28;45538;-82
2022/08/24 06:30:41;;;;;;;;;8.25;4.25;;;;;22.66;64.92;101386.09;5075851;27;69171;-81
2022/08/24 06:33:08;;;;;;;;;6.25;4.50;;;;;22.65;64.14;101386.19;5076619;27;45425;-81
2022/08/24 06:35:33;;;;;;;;;8.50;7.00;;;;;22.65;64.62;101388.84;5076060;27;46397;-82
2022/08/24 06:37:58;;;;;;;;;7.00;4.75;;;;;22.68;64.48;101388.63;5076275;27;45471;-81
2022/08/24 06:40:25;;;;;;;;;5.75;4.50;;;;;22.69;64.17;101385.03;5076796;28;45304;-82
2022/08/24 06:42:50;;;;;;;;;5.50;5.25;;;;;22.72;64.26;101388.31;5076688;27;45606;-82
2022/08/24 06:45:15;;;;;;;;;5.50;5.25;;;;;22.76;64.30;101383.63;5075453;27;75542;-81
2022/08/24 06:47:41;;;;;;;;;5.50;5.50;;;;;22.78;64.60;101385.22;5076573;27;45316;-82
2022/08/24 06:50:07;;;;;;;;;5.50;4.50;;;;;22.78;64.11;101384.38;5075617;28;62445;-82
2022/08/24 06:52:33;;;;;;;;;5.50;4.25;;;;;22.80;64.65;101380.66;5076486;27;45183;-81
2022/08/24 06:54:59;;;;;;;;;7.00;5.50;;;;;22.86;64.45;101379.38;5076291;27;46392;-82
2022/08/24 06:57:24;;;;;;;;;6.00;6.00;;;;;22.87;64.11;101388.19;5076355;27;45292;-82
2022/08/24 06:59:49;;;;;;;;;6.75;6.75;;;;;22.85;64.73;101384.81;5075888;28;56798;-82
2022/08/24 07:02:17;;;;;;;;;5.50;3.75;;;;;22.84;64.21;101386.59;5075439;28;70464;-82
2022/08/24 07:04:43;;;;;;;;;7.50;5.75;;;;;22.86;64.66;101387.31;5075529;27;45409;-82
2022/08/24 07:07:08;;;;;;;;;3.75;3.75;;;;;22.90;63.86;101385.31;5076063;27;45392;-82
2022/08/24 07:09:35;;;;;;;;;8.25;6.75;;;;;22.93;64.40;101383.28;5074797;28;48364;-81
2022/08/24 07:12:00;;;;;;;;;7.50;5.25;;;;;;;;5075576;28;45343;-81
2022/08/24 07:14:26;;;;;;;;;6.50;5.75;;;;;23.01;64.27;101390.69;5075473;27;45427;-81
2022/08/24 07:16:51;;;;;;;;;7.00;5.75;;;;;23.01;64.11;101380.06;5075893;27;45402;-82
2022/08/24 07:19:16;;;;;;;;;6.50;5.75;;;;;23.08;63.33;101383.19;5075135;27;67968;-82
2022/08/24 07:21:42;;;;;;;;;7.75;6.50;;;;;23.13;63.22;101384.56;5075019;28;69893;-82
2022/08/24 07:24:08;;;;;;;;;6.25;5.25;;;;;23.19;63.26;101384.09;5075980;27;45321;-82
2022/08/24 07:26:34;;;;;;;;;9.25;5.75;;;;;23.24;63.83;101383.78;5075960;27;45348;-82
2022/08/24 07:29:05;;;;;;;;;6.00;5.00;;;;;23.27;63.19;101382.72;5076073;28;45410;-82
2022/08/24 07:31:34;;;;;;;;;6.75;5.00;;;;;23.34;63.37;101387.47;5074657;28;45675;-81
2022/08/24 07:34:00;;;;;;;;;6.75;5.75;;;;;23.41;63.23;101392.34;5074289;27;45657;-82
2022/08/24 07:36:26;;;;;;;;;4.75;4.75;;;;;23.46;62.50;101396.34;5075586;27;45426;-82
2022/08/24 07:38:51;;;;;;;;;10.25;7.25;;;;;23.51;62.19;101390.69;5076060;27;45401;-82
2022/08/24 07:41:17;;;;;;;;;5.50;4.50;;;;;23.57;61.74;101393.75;5074799;28;45389;-82
2022/08/24 07:43:45;;;;;;;;;6.00;6.00;;;;;23.63;61.89;101400.44;5075801;27;46227;-81
2022/08/24 07:46:11;;;;;;;;;5.25;3.75;;;;;23.69;61.78;101392.00;5075886;27;45793;-81
2022/08/24 07:48:36;;;;;;;;;8.00;6.50;;;;;23.75;61.47;101404.84;5075510;27;45454;-81
2022/08/24 07:51:16;;;;;;;;;6.25;6.25;;;;;23.83;61.92;101400.78;5075757;27;45312;-82
2022/08/24 07:53:42;;;;;;;;;6.25;6.25;;;;;23.86;61.57;101403.22;5073996;27;46461;-82
2022/08/24 07:56:08;;;;;;;;;7.50;6.75;;;;;23.92;60.96;101398.31;5074457;28;45808;-82
2022/08/24 07:58:34;;;;;;;;;6.25;6.00;;;;;24.01;60.89;101407.38;5075728;27;45343;-82
2022/08/24 08:01:00;;;;;;;;;4.00;4.00;;;;;24.11;60.71;101404.91;5075361;27;45379;-82
2022/08/24 08:03:26;;;;;;;;;4.75;4.00;;;;;24.20;60.08;101413.97;5075332;27;45485;-82
2022/08/24 08:05:59;;;;;;;;;7.25;5.25;;;;;24.27;59.77;101410.72;5075520;28;45688;-82
2022/08/24 08:08:25;;;;;;;;;6.50;6.00;;;;;24.32;59.62;101413.03;5075660;27;45277;-82
2022/08/24 08:10:51;;;;;;;;;5.75;5.00;;;;;24.39;59.71;101414.28;5075667;27;45339;-82
2022/08/24 08:13:17;;;;;;;;;8.25;6.00;;;;;24.46;59.13;101417.28;5075398;27;46305;-81
2022/08/24 08:15:42;;;;;;;;;6.50;5.00;;;;;24.55;59.11;101416.63;5073724;27;45452;-81
2022/08/24 08:18:08;;;;;;;;;5.25;5.00;;;;;24.67;58.73;101415.69;5075411;28;45347;-82
2022/08/24 08:20:36;;;;;;;;;7.50;7.50;;;;;24.79;58.28;101419.19;5075503;27;45372;-82
2022/08/24 08:25:50;;;;;;;;;5.00;5.00;;;;;25.02;57.93;101419.22;5078877;27;45261;-82
2022/08/24 08:28:16;;;;;;;;;6.00;6.00;;;;;25.18;57.36;101422.31;5078863;27;45359;-82
2022/08/24 08:30:41;;;;;;;;;8.50;6.75;;;;;25.31;56.95;101419.53;5077316;27;70252;-82
2022/08/24 08:33:06;;;;;;;;;8.00;6.00;;;;;25.41;56.60;101417.84;5077150;27;45409;-82
2022/08/24 08:35:32;;;;;;;;;7.50;6.00;;;;;25.48;56.22;101418.19;5078380;27;45374;-81
2022/08/24 08:37:58;;;;;;;;;9.00;6.00;;;;;25.55;55.97;101418.53;5078655;27;45396;-82
2022/08/24 08:40:42;;;;;;;;;9.50;5.25;;;;;25.59;55.80;101415.47;5078826;27;45327;-82
2022/08/24 08:43:16;;;;;;;;;7.00;7.00;;;;;25.65;56.30;101419.50;5077039;27;45448;-82
2022/08/24 08:46:06;;;;;;;;;5.50;5.00;;;;;25.68;55.57;101417.38;5076867;27;45471;-82
2022/08/24 08:48:50;;;;;;;;;6.25;6.00;;;;;25.69;55.28;101413.75;5078536;27;45460;-82
2022/08/24 08:51:39;;;;;;;;;9.75;7.00;;;;;25.70;55.11;101414.59;5078449;27;45635;-81
2022/08/24 08:54:17;;;;;;;;;7.00;6.00;;;;;25.67;55.93;101412.22;5077895;27;46802;-82
2022/08/24 08:57:04;;;;;;;;;5.00;5.00;;;;;25.67;55.16;101404.22;5075667;27;45660;-81
2022/08/24 08:59:52;;;;;;;;;8.00;5.50;;;;;25.69;54.98;101413.75;5072009;28;45498;-80
2022/08/24 09:02:42;;;;;;;;;7.50;6.00;;;;;25.75;54.59;101408.91;5069974;28;45402;-82
2022/08/24 09:05:46;;;;;;;;;7.00;7.00;;;;;25.77;54.81;101401.63;5077793;28;46698;-81
2022/08/24 09:08:11;;;;;;;;;7.00;7.00;;;;;25.80;53.92;101412.03;5070625;28;45971;-81
2022/08/24 09:11:14;;;;;;;;;7.25;5.75;;;;;25.85;54.26;101412.47;5077906;27;45457;-81
2022/08/24 09:14:03;;;;;;;;;9.25;6.75;;;;;25.93;53.82;101404.75;5077153;28;45340;-81
2022/08/24 09:16:46;;;;;;;;;7.00;6.50;;;;;26.04;53.53;101404.69;5077165;27;45415;-79
2022/08/24 09:19:18;;;;;;;;;8.25;6.00;;;;;26.13;53.28;101402.19;5077498;28;45352;-80
2022/08/24 09:22:07;;;;;;;;;6.25;6.00;;;;;26.21;52.96;101397.06;5077730;27;45399;-80
2022/08/24 09:24:53;;;;;;;;;7.25;5.00;;;;;26.32;52.84;101410.34;5062072;27;45591;-80
2022/08/24 09:27:45;;;;;;;;;5.25;5.25;;;;;26.42;52.10;101405.06;5077114;27;46591;-79
2022/08/24 09:30:11;;;;;;;;;5.00;4.00;;;;;26.53;51.94;101412.16;5075863;28;45474;-79
2022/08/24 09:33:05;;;;;;;;;3.75;3.75;;;;;26.62;50.85;101404.22;5077137;27;45356;-79
2022/08/24 09:35:32;;;;;;;;;6.75;4.00;;;;;26.73;50.53;101411.31;5076307;27;45490;-79
2022/08/24 09:38:03;;;;;;;;;3.00;3.00;;;;;26.84;50.37;101413.03;5077026;28;45496;-80
2022/08/24 09:40:35;;;;;;;;;5.00;2.75;;;;;26.91;49.44;101411.50;5076037;27;45985;-79
2022/08/24 09:43:28;;;;;;;;;3.75;2.75;;;;;26.99;49.78;101411.69;5076928;27;45451;-80
2022/08/24 09:46:05;;;;;;;;;2.50;2.50;;;;;27.10;48.62;101415.22;5077070;28;45283;-80
2022/08/24 09:48:56;;;;;;;;;3.00;3.00;;;;;27.21;48.72;101407.13;5076954;28;46309;-81
2022/08/24 09:51:35;;;;;;;;;2.00;2.00;;;;;27.37;48.33;101410.13;5034260;28;45614;-82
2022/08/24 09:54:22;;;;;;;;;1.25;1.25;;;;;27.47;47.79;101407.50;5033644;28;45548;-81
2022/08/24 09:57:22;;;;;;;;;1.75;1.75;;;;;27.55;47.02;101394.25;5034616;28;45569;-81
2022/08/24 10:00:12;;;;;;;;;2.50;1.50;;;;;27.66;46.58;101408.50;5034642;28;45554;-82
2022/08/24 10:03:11;;;;;;;;;1.25;1.00;;;;;27.79;45.64;101401.88;5034490;28;45791;-82
2022/08/24 10:05:46;;;;;;;;;1.00;1.00;;;;;27.94;45.70;101398.81;5034675;28;45465;-81
2022/08/24 10:08:43;;;;;;;;;1.75;1.00;;;;;28.01;44.23;101399.94;5034682;28;45530;-80
2022/08/24 10:11:15;;;;;;;;;2.25;1.00;;;;;28.10;45.27;101399.06;5017873;28;45439;-80
2022/08/24 10:14:02;;;;;;;;;2.00;1.00;;;;;28.19;44.51;101400.03;5017236;28;45915;-80
2022/08/24 10:16:42;;;;;;;;;1.00;1.00;;;;;28.31;44.25;101395.38;5017570;28;45336;-80
2022/08/24 10:19:33;;;;;;;;;1.00;1.00;;;;;28.41;43.05;101393.50;5034494;28;45488;-80
2022/08/24 10:22:25;;;;;;;;;1.00;1.00;;;;;28.56;43.48;101392.06;5023558;28;46570;-80
2022/08/24 10:25:00;;;;;;;;;2.25;1.25;;;;;28.69;43.14;101386.38;5034271;28;45415;-80
2022/08/24 10:27:46;;;;;;;;;0.50;0.25;;;;;28.81;43.58;101381.69;5021401;28;45405;-80
2022/08/24 10:30:20;;;;;;;;;1.25;1.00;;;;;28.96;42.42;101368.66;5076875;27;45429;-80
2022/08/24 10:33:12;;;;;;;;;0.00;0.00;;;;;29.07;42.24;101381.00;5075316;27;45600;-80
2022/08/24 10:36:16;;;;;;;;;0.75;0.00;;;;;29.23;41.82;101375.84;5076597;28;45313;-80
2022/08/24 10:41:59;;;;;;;;;0.00;0.00;;;;;29.44;40.67;101378.25;5076541;27;45223;-80
2022/08/24 10:44:47;;;;;;;;;0.00;0.00;;;;;29.52;40.21;101370.28;5076472;27;46542;-80
2022/08/24 10:47:27;;;;;;;;;1.00;1.00;;;;;29.67;41.42;101372.41;5076278;27;45370;-80
2022/08/24 10:50:05;;;;;;;;;0.50;0.50;;;;;29.78;40.18;101369.53;5075408;27;45385;-81
2022/08/24 10:53:02;;;;;;;;;0.00;0.00;;;;;29.91;40.49;101367.28;5076529;28;45404;-80
2022/08/24 10:55:31;;;;;;;;;1.00;0.00;;;;;30.02;39.58;101360.81;5075902;27;46786;-80
2022/08/24 10:58:19;;;;;;;;;1.00;0.00;;;;;30.21;38.59;101367.00;5075021;28;45504;-80
2022/08/24 11:00:45;;;;;;;;;0.00;0.00;;;;;30.33;37.15;101372.97;5076519;27;45489;-81
2022/08/24 11:03:12;;;;;;;;;1.00;0.00;;;;;30.37;37.45;101363.56;5076425;27;45443;-80
2022/08/24 11:05:47;;;;;;;;;0.00;0.00;;;;;30.37;37.05;101361.75;5076264;28;46738;-80
2022/08/24 11:08:24;;;;;;;;;0.50;0.50;;;;;30.44;37.75;101361.94;5075152;28;45443;-80
2022/08/24 11:11:07;;;;;;;;;1.25;0.00;;;;;30.53;38.16;101360.97;5076067;27;45288;-80
2022/08/24 11:13:35;;;;;;;;;0.75;0.75;;;;;30.61;37.68;101354.81;5076334;28;45347;-80
2022/08/24 11:16:02;;;;;;;;;0.00;0.00;;;;;30.69;38.69;101354.84;5076103;27;46530;-79
2022/08/24 11:18:46;;;;;;;;;1.00;1.00;;;;;30.85;38.30;101346.84;5076141;27;45680;-80
2022/08/24 11:21:30;;;;;;;;;1.00;1.00;;;;;31.01;37.36;101343.41;5076353;27;45469;-80
2022/08/24 11:24:01;;;;;;;;;0.00;0.00;;;;;31.13;37.92;101340.38;5074638;27;45582;-80
2022/08/24 11:26:27;;;;;;;;;1.00;0.00;;;;;31.26;37.32;101348.84;5076210;27;45470;-80
2022/08/24 11:28:57;;;;;;;;;0.00;0.00;;;;;31.38;36.53;101344.81;5075975;27;45490;-80
2022/08/24 11:31:26;;;;;;;;;2.25;0.00;;;;;31.62;37.53;101344.00;5074650;28;45298;-80
2022/08/24 11:33:59;;;;;;;;;1.00;1.00;;;;;31.97;37.23;101335.75;5076034;27;45214;-80
2022/08/24 11:36:27;;;;;;;;;1.00;0.00;;;;;32.36;35.43;101335.03;5074318;28;45377;-80
2022/08/24 11:39:15;;;;;;;;;1.00;0.00;;;;;32.81;34.75;101332.69;5075434;27;45331;-81
2022/08/24 11:41:52;;;;;;;;;1.00;0.00;;;;;34.38;36.07;101333.97;5074826;28;45370;-80
2022/08/24 11:44:24;;;;;;;;;0.00;0.00;;;;;37.29;29.38;101336.69;5074640;28;45506;-80
2022/08/24 11:46:56;;;;;;;;;1.00;1.00;;;;;39.57;26.60;101332.22;5075791;28;46424;-80
2022/08/24 11:49:51;;;;;;;;;1.00;0.75;;;;;41.89;24.81;101332.09;5074415;27;45809;-80
2022/08/24 11:52:42;;;;;;;;;0.00;0.00;;;;;44.25;21.60;101336.34;5074808;28;45385;-80